createdAt,value
2022-11-03T00:04:40.913Z,2.1337792642140467
2022-11-03T00:11:15.953Z,1.6822742474916388
2022-11-03T00:20:42.583Z,1.7023411371237458
2022-11-03T00:27:38.507Z,1.7224080267558528
2022-11-03T00:34:13.422Z,1.568561872909699
2022-11-03T00:47:28.918Z,1.1471571906354514
2022-11-03T00:53:59.175Z,1.1872909698996656
2022-11-03T01:00:28.614Z,1.2040133779264215
2022-11-03T01:06:57.296Z,1.0334448160535117
2022-11-03T01:13:26.308Z,1.1705685618729098
2022-11-03T01:19:54.066Z,1.1505016722408026
2022-11-03T01:26:39.877Z,0.8862876254180602
2022-11-03T01:33:11.444Z,0.9163879598662207
2022-11-03T01:39:39.385Z,0.8561872909698997
2022-11-03T01:46:12.854Z,0.9464882943143813
2022-11-03T01:53:07.466Z,0.6956521739130435
2022-11-03T01:59:41.420Z,1.1103678929765886
2022-11-03T02:06:10.714Z,0.7391304347826086
2022-11-03T02:16:10.753Z,0.745819397993311
2022-11-03T02:22:56.979Z,0.8494983277591973
2022-11-03T02:29:26.389Z,0.9565217391304348
2022-11-03T02:35:58.393Z,0.6521739130434783
2022-11-03T02:42:27.503Z,0.9297658862876255
2022-11-03T02:48:56.547Z,0.7324414715719063
2022-11-03T03:01:50.339Z,0.6521739130434783
2022-11-03T03:08:21.518Z,0.6086956521739131
2022-11-03T03:14:50.301Z,0.46153846153846156
2022-11-03T03:23:48.674Z,0.6789297658862876
2022-11-03T03:30:18.636Z,0.6153846153846154
2022-11-03T03:36:47.293Z,0.8862876254180602
2022-11-03T03:48:10.542Z,0.47491638795986624
2022-11-03T03:54:39.026Z,0.4013377926421405
2022-11-03T04:01:06.455Z,0.6956521739130435
2022-11-03T04:07:42.373Z,0.5250836120401338
2022-11-03T04:14:12.837Z,0.35785953177257523
2022-11-03T04:20:40.216Z,0.6120401337792643
2022-11-03T04:27:25.337Z,0.6120401337792643
2022-11-03T04:33:52.722Z,0.5384615384615384
2022-11-03T04:40:21.673Z,0.6020066889632107
2022-11-03T04:46:49.698Z,0.6454849498327759
2022-11-03T04:53:17.752Z,0.5819397993311036
2022-11-03T05:01:04.694Z,0.7190635451505016
2022-11-03T05:07:33.469Z,0.5418060200668896
2022-11-03T05:14:00.954Z,0.745819397993311
2022-11-03T05:26:23.633Z,0.8260869565217391
2022-11-03T05:32:52.953Z,0.9698996655518395
2022-11-03T05:39:21.975Z,1.4882943143812708
2022-11-03T05:45:55.165Z,1.2274247491638797
2022-11-03T05:52:23.891Z,1.471571906354515
2022-11-03T05:58:51.072Z,0.7959866220735786
2022-11-03T06:05:19.844Z,0.9464882943143813
2022-11-03T06:13:55.901Z,1.3578595317725752
2022-11-03T06:20:25.151Z,1.2909698996655519
2022-11-03T06:27:12.279Z,1.0535117056856187
2022-11-03T06:33:44.347Z,1.0702341137123745
2022-11-03T06:43:58.742Z,1.5016722408026757
2022-11-03T06:50:26.442Z,1.2107023411371238
2022-11-03T06:57:47.459Z,1.4280936454849498
2022-11-03T07:07:02.187Z,1.9698996655518395
2022-11-03T07:17:12.003Z,2.117056856187291
2022-11-03T07:34:06.727Z,2.5451505016722407
2022-11-03T07:50:02.091Z,1.7725752508361203
2022-11-03T08:08:31.244Z,1.785953177257525
2022-11-03T08:14:59.028Z,1.9431438127090301
2022-11-03T08:21:26.936Z,2.0936454849498327
2022-11-03T08:28:05.271Z,2.1739130434782608
2022-11-03T08:38:19.992Z,1.8093645484949832
2022-11-03T08:46:22.967Z,2.4046822742474916
2022-11-03T08:52:52.058Z,1.5518394648829432
2022-11-03T08:59:20.875Z,1.6755852842809364
2022-11-03T09:13:11.817Z,1.354515050167224
2022-11-03T09:19:40.956Z,1.4414715719063544
2022-11-03T09:26:20.754Z,1.625418060200669
2022-11-03T09:32:48.503Z,1.4782608695652173
2022-11-03T09:39:17.481Z,1.1638795986622072
2022-11-03T09:45:45.490Z,1.0869565217391304
2022-11-03T09:54:30.036Z,0.9464882943143813
2022-11-03T10:05:18.138Z,1.2207357859531773
2022-11-03T10:11:48.884Z,1.568561872909699
2022-11-03T10:24:22.187Z,1.1906354515050168
2022-11-03T10:40:02.167Z,1.0501672240802675
2022-11-03T10:46:48.985Z,1.1438127090301002
2022-11-03T10:56:20.859Z,0.903010033444816
2022-11-03T11:02:48.823Z,1.1237458193979932
2022-11-03T11:09:16.968Z,0.8294314381270903
2022-11-03T11:15:44.637Z,1.2173913043478262
2022-11-03T11:22:14.479Z,1.2040133779264215
2022-11-03T11:28:51.417Z,0.7558528428093646
2022-11-03T11:35:21.268Z,1.37123745819398
2022-11-03T11:41:49.547Z,0.8963210702341137
2022-11-03T11:50:38.473Z,1.120401337792642
2022-11-03T11:59:38.785Z,0.9498327759197325
2022-11-03T12:06:08.176Z,1.0668896321070234
2022-11-03T12:12:36.570Z,0.6722408026755853
2022-11-03T12:19:04.330Z,0.7959866220735786
2022-11-03T12:25:43.020Z,0.9531772575250836
2022-11-03T12:32:25.841Z,1.3043478260869565
2022-11-03T12:39:02.782Z,1.1672240802675586
2022-11-03T12:45:34.495Z,0.9130434782608695
2022-11-03T12:52:07.650Z,0.6588628762541806
2022-11-03T12:58:36.090Z,0.8996655518394648
2022-11-03T13:05:05.470Z,1.0903010033444815
2022-11-03T13:11:35.197Z,0.9665551839464883
2022-11-03T13:18:13.303Z,1.1672240802675586
2022-11-03T13:24:55.051Z,1.2073578595317727
2022-11-03T13:31:23.290Z,0.8361204013377926
2022-11-03T13:37:53.305Z,1.8193979933110367
2022-11-03T13:47:11.922Z,2.20066889632107
2022-11-03T14:06:31.687Z,6.207357859531773
2022-11-03T14:12:59.349Z,5.568561872909699
2022-11-03T14:19:36.499Z,5.036789297658863
2022-11-03T14:26:25.317Z,6.2040133779264215
2022-11-03T14:33:13.621Z,6.274247491638796
2022-11-03T14:39:41.790Z,2.849498327759197
2022-11-03T14:50:39.243Z,4.214046822742475
2022-11-03T14:57:06.972Z,3.0668896321070234
2022-11-03T15:03:34.624Z,2.160535117056856
2022-11-03T15:15:52.734Z,2.591973244147157
2022-11-03T15:29:27.588Z,3.5652173913043477
2022-11-03T15:35:55.968Z,2.3277591973244145
2022-11-03T15:44:33.722Z,3.150501672240803
2022-11-03T15:51:01.794Z,2.802675585284281
2022-11-03T15:58:20.526Z,3.2240802675585285
2022-11-03T16:04:49.467Z,6.11371237458194
2022-11-03T16:11:17.768Z,4.05685618729097
2022-11-03T16:19:52.221Z,7.37123745819398
2022-11-03T16:31:45.237Z,5.809364548494983
2022-11-03T16:38:14.138Z,4.966555183946488
2022-11-03T16:44:56.074Z,3.9966555183946486
2022-11-03T16:51:25.959Z,5.006688963210703
2022-11-03T16:57:54.112Z,5.107023411371237
2022-11-03T17:04:23.388Z,6.073578595317726
2022-11-03T17:10:52.507Z,9.367892976588628
2022-11-03T17:17:20.937Z,5.638795986622074
2022-11-03T17:24:03.071Z,4.525083612040134
2022-11-03T17:30:32.136Z,4.277591973244147
2022-11-03T17:40:02.747Z,5.147157190635451
2022-11-03T17:46:31.164Z,5.444816053511706
2022-11-03T18:00:52.062Z,7.468227424749164
2022-11-03T18:07:20.029Z,6.264214046822742
2022-11-03T18:13:48.636Z,5.869565217391305
2022-11-03T18:22:53.986Z,6.39799331103679
2022-11-03T18:29:23.003Z,5.829431438127091
2022-11-03T18:41:19.188Z,5.622073578595318
2022-11-03T19:03:25.851Z,5.936454849498328
2022-11-03T19:19:52.957Z,5.678929765886288
2022-11-03T19:27:53.143Z,5.207357859531773
2022-11-03T19:35:16.893Z,5.709030100334449
2022-11-03T19:43:11.160Z,5.010033444816053
2022-11-03T19:51:08.133Z,5.234113712374582
2022-11-03T20:03:54.188Z,5.2207357859531776
2022-11-03T20:11:31.063Z,5.214046822742475
2022-11-03T20:19:07.914Z,5.662207357859532
2022-11-03T20:27:17.168Z,5.528428093645485
2022-11-03T20:35:03.619Z,5.11371237458194
2022-11-03T20:42:30.635Z,5.478260869565218
2022-11-03T20:50:08.935Z,5.929765886287625
2022-11-03T20:57:55.846Z,5.424749163879599
2022-11-03T21:05:58.488Z,5.6755852842809364
2022-11-03T21:13:28.708Z,5.491638795986622
2022-11-03T21:38:18.934Z,5.648829431438127
2022-11-03T21:54:30.099Z,5.765886287625418
2022-11-03T22:06:18.206Z,5.959866220735786
2022-11-03T22:14:58.477Z,6.1404682274247495
2022-11-03T22:22:56.752Z,5.993311036789297
2022-11-03T22:30:45.784Z,5.625418060200669
2022-11-03T22:38:13.645Z,5.665551839464883
2022-11-03T22:46:04.367Z,5.769230769230769
2022-11-03T22:53:41.257Z,5.364548494983278
2022-11-03T23:01:05.183Z,5.531772575250836
2022-11-03T23:16:50.960Z,5.321070234113712
2022-11-03T23:24:28.741Z,5.254180602006689
2022-11-03T23:32:05.310Z,5.3076923076923075
2022-11-03T23:48:25.621Z,4.190635451505017
